createdAt,value
2023-01-23T00:00:10.388Z,3.3
2023-01-23T00:05:12.749Z,3.3
2023-01-23T00:10:14.898Z,3.3
2023-01-23T00:15:17.105Z,3.3
2023-01-23T00:20:20.533Z,3.4
2023-01-23T00:25:23.170Z,3.3
2023-01-23T00:30:25.447Z,3.4
2023-01-23T00:35:27.964Z,3.5
2023-01-23T00:40:30.144Z,3.4
2023-01-23T00:45:32.352Z,3.5
2023-01-23T00:50:34.501Z,3.6
2023-01-23T00:55:36.639Z,3.6
2023-01-23T01:00:38.879Z,3.6
2023-01-23T01:05:41.170Z,3.6
2023-01-23T01:10:43.316Z,3.5
2023-01-23T01:15:45.764Z,3.6
2023-01-23T01:20:48.035Z,3.6
2023-01-23T01:25:50.259Z,3.6
2023-01-23T01:30:53.025Z,3.6
2023-01-23T01:35:55.318Z,3.5
2023-01-23T01:40:57.362Z,3.5
2023-01-23T01:45:59.678Z,3.5
2023-01-23T01:51:01.862Z,3.5
2023-01-23T01:56:04.016Z,3.5
2023-01-23T02:01:06.567Z,3.5
2023-01-23T02:06:08.831Z,3.5
2023-01-23T02:11:11.038Z,3.6
2023-01-23T02:16:13.304Z,3.6
2023-01-23T02:21:15.579Z,3.6
2023-01-23T02:26:17.768Z,3.6
2023-01-23T02:31:20.520Z,3.5
2023-01-23T02:36:22.856Z,3.5
2023-01-23T02:46:25.489Z,3.4
2023-01-23T02:51:27.688Z,3.3
2023-01-23T02:56:29.876Z,3.2
2023-01-23T03:01:32.065Z,3.2
2023-01-23T03:06:34.569Z,3.2
2023-01-23T03:11:36.692Z,3.2
2023-01-23T03:16:40.633Z,3.2
2023-01-23T03:21:42.925Z,3.2
2023-01-23T03:26:45.174Z,3.2
2023-01-23T03:31:47.499Z,3.2
2023-01-23T03:36:49.890Z,3.2
2023-01-23T03:41:52.167Z,3.2
2023-01-23T03:46:54.219Z,3.2
2023-01-23T03:51:56.352Z,3.2
2023-01-23T03:56:58.447Z,3.2
2023-01-23T04:02:00.693Z,3.1
2023-01-23T04:07:02.905Z,3.1
2023-01-23T04:12:05.120Z,3.1
2023-01-23T04:17:07.256Z,3
2023-01-23T04:22:09.783Z,3
2023-01-23T04:27:12.297Z,3
2023-01-23T04:32:14.422Z,2.9
2023-01-23T04:37:16.477Z,2.9
2023-01-23T04:42:18.658Z,2.9
2023-01-23T04:47:20.729Z,2.9
2023-01-23T04:52:22.930Z,2.9
2023-01-23T04:57:25.071Z,2.9
2023-01-23T05:02:27.444Z,2.9
2023-01-23T05:07:29.685Z,2.9
2023-01-23T05:12:31.783Z,2.9
2023-01-23T05:17:33.856Z,2.8
2023-01-23T05:22:35.998Z,2.8
2023-01-23T05:27:38.077Z,2.8
2023-01-23T05:32:40.292Z,2.8
2023-01-23T05:37:42.434Z,2.8
2023-01-23T05:42:45.201Z,2.8
2023-01-23T05:47:53.413Z,2.8
2023-01-23T05:52:55.749Z,2.8
2023-01-23T05:57:57.816Z,2.8
2023-01-23T06:03:00.450Z,2.8
2023-01-23T06:08:02.752Z,2.8
2023-01-23T06:13:04.806Z,2.9
2023-01-23T06:18:07.040Z,3
2023-01-23T06:23:09.268Z,3
2023-01-23T06:28:11.301Z,3
2023-01-23T06:33:13.851Z,3.1
2023-01-23T06:38:15.954Z,3.1
2023-01-23T06:43:18.033Z,3.2
2023-01-23T06:48:20.938Z,3.6
2023-01-23T06:53:23.137Z,3.5
2023-01-23T06:58:25.180Z,3.8
2023-01-23T07:03:27.508Z,3.9
2023-01-23T07:08:29.949Z,4
2023-01-23T07:13:32.132Z,4.2
2023-01-23T07:18:34.344Z,4.5
2023-01-23T07:23:36.576Z,4.6
2023-01-23T07:28:38.789Z,4.6
2023-01-23T07:33:41.119Z,4.9
2023-01-23T07:38:43.441Z,5.1
2023-01-23T07:43:45.920Z,5.3
2023-01-23T07:48:48.198Z,5.7
2023-01-23T07:53:50.328Z,6.2
2023-01-23T07:58:57.303Z,7.3
2023-01-23T08:04:00.240Z,9.1
2023-01-23T08:09:02.900Z,9
2023-01-23T08:14:05.409Z,14.7
2023-01-23T08:19:07.544Z,14.7
2023-01-23T08:24:09.973Z,16.8
2023-01-23T08:29:12.163Z,17.6
2023-01-23T08:34:14.238Z,18.7
2023-01-23T08:39:16.718Z,13.2
2023-01-23T08:44:18.935Z,13.1
2023-01-23T08:49:21.200Z,14.1
2023-01-23T08:54:23.853Z,14.4
2023-01-23T08:59:26.649Z,13
2023-01-23T09:04:28.857Z,13
2023-01-23T09:09:31.212Z,12.9
2023-01-23T09:14:33.555Z,12.3
2023-01-23T09:19:39.236Z,11.3
2023-01-23T09:24:42.418Z,10.7
2023-01-23T09:29:44.542Z,10.6
2023-01-23T09:34:47.033Z,13.5
2023-01-23T09:39:49.196Z,13.5
2023-01-23T09:44:51.313Z,14.6
2023-01-23T09:49:53.324Z,14.8
2023-01-23T09:54:55.244Z,15.1
2023-01-23T10:00:02.551Z,16.1
2023-01-23T10:05:05.072Z,17.2
2023-01-23T10:10:08.935Z,17.1
2023-01-23T10:15:10.977Z,17
2023-01-23T10:20:12.946Z,17.8
2023-01-23T10:25:15.030Z,16.6
2023-01-23T10:30:17.018Z,17.2
2023-01-23T10:35:20.682Z,18.9
2023-01-23T10:40:23.915Z,19
2023-01-23T10:45:25.866Z,19.1
2023-01-23T10:55:28.265Z,22.4
2023-01-23T11:00:30.272Z,20.9
2023-01-23T11:05:52.379Z,19
2023-01-23T11:10:35.200Z,19
2023-01-23T11:15:37.475Z,20.8
2023-01-23T11:20:39.642Z,21.1
2023-01-23T11:25:41.752Z,19.3
2023-01-23T11:30:44.454Z,18.8
2023-01-23T11:35:46.738Z,18.8
2023-01-23T11:40:48.647Z,18.6
2023-01-23T11:45:50.823Z,17.7
2023-01-23T11:50:57.394Z,18.6
2023-01-23T11:55:59.525Z,18.5
2023-01-23T12:01:01.539Z,17
2023-01-23T12:06:21.658Z,16
2023-01-23T12:11:03.793Z,15.7
2023-01-23T12:16:05.888Z,14.3
2023-01-23T12:21:08.163Z,14.2
2023-01-23T12:26:10.210Z,15.4
2023-01-23T12:31:12.980Z,15.8
2023-01-23T12:36:15.242Z,15.7
2023-01-23T12:41:17.228Z,14.6
2023-01-23T12:46:19.211Z,14.3
2023-01-23T12:51:21.367Z,13.6
2023-01-23T12:56:23.432Z,14.3
2023-01-23T13:01:25.730Z,14.7
2023-01-23T13:06:28.159Z,14.1
2023-01-23T13:11:30.387Z,13.9
2023-01-23T13:16:33.245Z,13.8
2023-01-23T13:21:35.620Z,13.8
2023-01-23T13:26:37.617Z,14.5
2023-01-23T13:31:40.572Z,14.6
2023-01-23T13:36:43.036Z,14.6
2023-01-23T13:41:45.288Z,15.4
2023-01-23T13:46:47.406Z,15.5
2023-01-23T13:51:49.606Z,15.4
2023-01-23T13:56:51.526Z,15
2023-01-23T14:01:53.537Z,14.5
2023-01-23T14:06:55.450Z,13.9
2023-01-23T14:11:58.047Z,13
2023-01-23T14:17:01.628Z,12.7
2023-01-23T14:22:03.976Z,12.6
2023-01-23T14:27:11.635Z,12.1
2023-01-23T14:32:08.356Z,12
2023-01-23T14:37:10.493Z,11.8
2023-01-23T14:42:24.781Z,11.1
2023-01-23T14:47:16.938Z,11
2023-01-23T14:52:19.162Z,10.9
2023-01-23T14:57:21.675Z,10.7
2023-01-23T15:02:24.233Z,10.4
2023-01-23T15:07:26.680Z,10.3
2023-01-23T15:12:28.949Z,10.2
2023-01-23T15:17:31.091Z,10
2023-01-23T15:22:33.268Z,9.8
2023-01-23T15:27:35.625Z,9.6
2023-01-23T15:32:37.882Z,9.5
2023-01-23T15:37:40.096Z,9.3
2023-01-23T15:42:42.216Z,9.2
2023-01-23T15:47:44.391Z,9.1
2023-01-23T15:52:47.029Z,8.9
2023-01-23T15:57:49.185Z,8.9
2023-01-23T16:02:59.249Z,8.8
2023-01-23T16:07:51.633Z,8.8
2023-01-23T16:12:54.305Z,8.8
2023-01-23T16:17:56.667Z,8.7
2023-01-23T16:23:14.310Z,8.7
2023-01-23T16:28:07.467Z,8.7
2023-01-23T16:33:10.173Z,8.6
2023-01-23T16:38:12.251Z,8.6
2023-01-23T16:43:14.528Z,8.5
2023-01-23T16:48:30.115Z,8.5
2023-01-23T16:53:22.333Z,8.5
2023-01-23T16:58:24.272Z,8.5
2023-01-23T17:03:27.416Z,8.5
2023-01-23T17:08:29.624Z,8.5
2023-01-23T17:18:32.929Z,8.4
2023-01-23T17:23:35.158Z,8.4
2023-01-23T17:28:37.338Z,8.4
2023-01-23T17:33:39.799Z,8.3
2023-01-23T17:38:41.735Z,8.3
2023-01-23T17:43:43.948Z,8.3
2023-01-23T17:48:46.207Z,8.2
2023-01-23T17:53:48.319Z,8.2
2023-01-23T17:58:50.361Z,8.1
2023-01-23T18:03:52.418Z,8.1
2023-01-23T18:08:54.501Z,8
2023-01-23T18:13:56.803Z,8
2023-01-23T18:19:01.963Z,7.9
2023-01-23T18:24:05.644Z,7.9
2023-01-23T18:29:07.890Z,7.8
2023-01-23T18:34:09.911Z,7.8
2023-01-23T18:39:11.981Z,7.8
2023-01-23T18:44:14.151Z,7.7
2023-01-23T18:49:34.143Z,7.6
2023-01-23T18:54:26.308Z,7.5
2023-01-23T18:59:28.594Z,7.5
2023-01-23T19:04:31.119Z,7.3
2023-01-23T19:09:33.134Z,7.2
2023-01-23T19:14:35.434Z,7.3
2023-01-23T19:19:37.524Z,7.2
2023-01-23T19:24:39.629Z,7.1
2023-01-23T19:29:42.405Z,7.1
2023-01-23T19:34:44.638Z,7.1
2023-01-23T19:39:46.680Z,7.1
2023-01-23T19:44:51.577Z,7.1
2023-01-23T19:49:55.451Z,7.1
2023-01-23T19:54:57.783Z,7.1
2023-01-23T19:59:59.914Z,7.1
2023-01-23T20:05:02.200Z,7.1
2023-01-23T20:10:04.623Z,7.1
2023-01-23T20:15:08.058Z,7
2023-01-23T20:20:10.293Z,6.9
2023-01-23T20:25:12.331Z,7
2023-01-23T20:30:14.834Z,7
2023-01-23T20:35:17.669Z,6.9
2023-01-23T20:40:22.465Z,7
2023-01-23T20:45:30.924Z,6.9
2023-01-23T20:50:33.514Z,6.9
2023-01-23T20:55:35.923Z,6.9
2023-01-23T21:00:42.368Z,6.8
2023-01-23T21:05:45.672Z,6.8
2023-01-23T21:10:49.486Z,6.8
2023-01-23T21:16:01.787Z,6.8
2023-01-23T21:20:56.465Z,6.8
2023-01-23T21:25:58.843Z,6.8
2023-01-23T21:31:01.530Z,6.8
2023-01-23T21:36:03.861Z,6.8
2023-01-23T21:41:06.003Z,6.9
2023-01-23T21:46:08.964Z,7
2023-01-23T21:51:11.206Z,6.9
2023-01-23T21:56:13.448Z,7
2023-01-23T22:01:15.746Z,7
2023-01-23T22:06:17.927Z,6.9
2023-01-23T22:16:51.387Z,7
2023-01-23T22:21:33.986Z,7
2023-01-23T22:26:36.171Z,6.9
2023-01-23T22:31:38.890Z,6.8
2023-01-23T22:36:41.409Z,6.8
2023-01-23T22:41:43.668Z,6.8
2023-01-23T22:46:45.978Z,6.7
2023-01-23T22:51:48.218Z,6.7
2023-01-23T22:56:50.724Z,6.7
2023-01-23T23:01:53.065Z,6.7
2023-01-23T23:06:55.532Z,6.7
2023-01-23T23:11:57.689Z,6.7
2023-01-23T23:16:59.910Z,6.7
2023-01-23T23:22:02.210Z,6.6
2023-01-23T23:27:04.375Z,6.6
2023-01-23T23:32:07.422Z,6.5
2023-01-23T23:37:10.075Z,6.5
2023-01-23T23:42:12.344Z,6.5
2023-01-23T23:47:14.415Z,6.5
2023-01-23T23:52:16.538Z,6.5
2023-01-23T23:57:18.544Z,6.5
